Sabahat Telli — TCSQ6 — position and weather

sailwx.info

Track history (hours):
 
Tides and Currents Weather Stations Pressure Air Temp Water Temp Dewpoint Dewpoint Depression Visibility Wind Speed Wind Dir Waves Ship Positions

Sabahat Telli

Last reported at 2016-Nov-12 09:33 UTC. Time now 2016-Dec-08 22:12 UTC.
Position N 37°44' E 023°40'.
Warning: this ship's position is 26 days out of date.

Length 99 m; draft 5.4 m.

Type: Tanker. MMSI: 271000961.

Date/timePositionNaut miles runAvg speedWind from/ knotsBaromVisibWave heightAir tempDewpointWater temp
2016-Nov-12 09:33N 37°44' E 023°40'3010.1
2016-Nov-12 06:33N 37°54' E 023°03'21 7.0
2016-Nov-12 03:30N 38°05' E 022°40'1110.7
2016-Nov-12 02:29N 38°10' E 022°28'  
2016-Nov-09 20:21N 44°32' E 013°39'510.6
2016-Nov-09 19:52N 44°36' E 013°35'810.6
2016-Nov-09 19:05N 44°43' E 013°28'610.7
2016-Nov-09 18:33N 44°47' E 013°23'1110.5
2016-Nov-09 17:33N 44°56' E 013°15'2110.3
2016-Nov-09 15:33N 45°15' E 013°03'19 9.6
2016-Nov-09 13:33N 45°32' E 013°16'20 4.0
2016-Nov-09 08:33N 45°33' E 013°44'0 0.0
2016-Nov-09 07:33N 45°33' E 013°44'0 0.0
2016-Nov-09 05:33N 45°33' E 013°44'0 0.0
2016-Nov-09 04:32N 45°33' E 013°44'0 0.0
2016-Nov-09 02:31N 45°33' E 013°44'0 0.0
2016-Nov-08 23:33N 45°33' E 013°44'0 0.0
2016-Nov-08 22:30N 45°33' E 013°44'0 0.0
2016-Nov-08 21:29N 45°33' E 013°44'0 0.0
2016-Nov-08 20:26N 45°33' E 013°44'0 0.0
2016-Nov-08 19:28N 45°33' E 013°44'0 0.0
2016-Nov-08 18:28N 45°33' E 013°44'0 0.0
2016-Nov-08 17:31N 45°33' E 013°44'0 0.0
2016-Nov-08 15:24N 45°33' E 013°44'1 0.1
2016-Nov-08 09:33N 45°34' E 013°43'2 0.7
2016-Nov-08 06:33N 45°35' E 013°41'11 5.5
2016-Nov-08 04:33N 45°32' E 013°26'31 7.7
2016-Nov-08 00:33N 45°02' E 013°19'9 8.7
2016-Nov-07 23:33N 44°54' E 013°13'35 8.6
2016-Nov-07 19:33N 44°19' E 013°14'34 1.1
2016-Nov-06 11:20N 44°31' E 012°29'0 0.0
2016-Nov-06 10:13N 44°31' E 012°29'0 0.0
2016-Nov-06 08:33N 44°31' E 012°29'0 0.0
2016-Nov-06 07:30N 44°31' E 012°29'0 0.0
2016-Nov-05 23:33N 44°31' E 012°29'0 0.0
2016-Nov-05 21:32N 44°31' E 012°29'0 0.0
2016-Nov-05 20:19N 44°31' E 012°29'0 0.0
2016-Nov-05 16:27N 44°31' E 012°29'0 0.0
2016-Nov-05 12:31N 44°31' E 012°29'0 0.1
2016-Nov-05 11:33N 44°31' E 012°29'10 9.6
2016-Nov-05 10:31N 44°27' E 012°42'1010.7
2016-Nov-05 09:33N 44°23' E 012°55'1111.0
2016-Nov-05 08:33N 44°19' E 013°09'1110.9
2016-Nov-05 07:33N 44°13' E 013°22'3210.8
2016-Nov-05 04:33N 43°54' E 013°59'  
Track history (hours):
 
Tides and Currents Weather Stations Pressure Air Temp Water Temp Dewpoint Dewpoint Depression Visibility Wind Speed Wind Dir Waves Ship Positions

Sabahat Telli

Last reported at 2016-Nov-12 09:33 UTC. Time now 2016-Dec-08 22:12 UTC.
Position N 37°44' E 023°40'.
Warning: this ship's position is 26 days out of date.

Length 99 m; draft 5.4 m.

Type: Tanker. MMSI: 271000961.

Date/timePositionNaut miles runAvg speedWind from/ knotsBaromVisibWave heightAir tempDewpointWater temp
2016-Nov-12 09:33N 37°44' E 023°40'3010.1
2016-Nov-12 06:33N 37°54' E 023°03'21 7.0
2016-Nov-12 03:30N 38°05' E 022°40'1110.7
2016-Nov-12 02:29N 38°10' E 022°28'  
2016-Nov-09 20:21N 44°32' E 013°39'510.6
2016-Nov-09 19:52N 44°36' E 013°35'810.6
2016-Nov-09 19:05N 44°43' E 013°28'610.7
2016-Nov-09 18:33N 44°47' E 013°23'1110.5
2016-Nov-09 17:33N 44°56' E 013°15'2110.3
2016-Nov-09 15:33N 45°15' E 013°03'19 9.6
2016-Nov-09 13:33N 45°32' E 013°16'20 4.0
2016-Nov-09 08:33N 45°33' E 013°44'0 0.0
2016-Nov-09 07:33N 45°33' E 013°44'0 0.0
2016-Nov-09 05:33N 45°33' E 013°44'0 0.0
2016-Nov-09 04:32N 45°33' E 013°44'0 0.0
2016-Nov-09 02:31N 45°33' E 013°44'0 0.0
2016-Nov-08 23:33N 45°33' E 013°44'0 0.0
2016-Nov-08 22:30N 45°33' E 013°44'0 0.0
2016-Nov-08 21:29N 45°33' E 013°44'0 0.0
2016-Nov-08 20:26N 45°33' E 013°44'0 0.0
2016-Nov-08 19:28N 45°33' E 013°44'0 0.0
2016-Nov-08 18:28N 45°33' E 013°44'0 0.0
2016-Nov-08 17:31N 45°33' E 013°44'0 0.0
2016-Nov-08 15:24N 45°33' E 013°44'1 0.1
2016-Nov-08 09:33N 45°34' E 013°43'2 0.7
2016-Nov-08 06:33N 45°35' E 013°41'11 5.5
2016-Nov-08 04:33N 45°32' E 013°26'31 7.7
2016-Nov-08 00:33N 45°02' E 013°19'9 8.7
2016-Nov-07 23:33N 44°54' E 013°13'35 8.6
2016-Nov-07 19:33N 44°19' E 013°14'34 1.1
2016-Nov-06 11:20N 44°31' E 012°29'0 0.0
2016-Nov-06 10:13N 44°31' E 012°29'0 0.0
2016-Nov-06 08:33N 44°31' E 012°29'0 0.0
2016-Nov-06 07:30N 44°31' E 012°29'0 0.0
2016-Nov-05 23:33N 44°31' E 012°29'0 0.0
2016-Nov-05 21:32N 44°31' E 012°29'0 0.0
2016-Nov-05 20:19N 44°31' E 012°29'0 0.0
2016-Nov-05 16:27N 44°31' E 012°29'0 0.0
2016-Nov-05 12:31N 44°31' E 012°29'0 0.1
2016-Nov-05 11:33N 44°31' E 012°29'10 9.6
2016-Nov-05 10:31N 44°27' E 012°42'1010.7
2016-Nov-05 09:33N 44°23' E 012°55'1111.0
2016-Nov-05 08:33N 44°19' E 013°09'1110.9
2016-Nov-05 07:33N 44°13' E 013°22'3210.8
2016-Nov-05 04:33N 43°54' E 013°59'  

Dump ship's entire track history